Terminal Aerodrome Forecast
Issued by NWS Wakefield, VA

Home | Current Version | Previous Version | Text Only | Print | Product List | Glossary On
Versions: 1 2 3 4 5 6 7 8 9 10 11 12 13 14 15 16 17 18
000
FTUS41 KAKQ 252033 AAA
TAFORF
TAF AMD
KORF 252033Z 2521/2618 09007KT P6SM SKC
     FM252200 12006KT P6SM SKC
     FM260100 20005KT P6SM SKC
     FM260400 22008KT P6SM SKC=

USA.gov is the U.S. government's official web portal to all federal, state and local government web resources and services.